createdAt,value
2018-12-23T00:00:13.197Z,17.70
2018-12-23T00:02:40.616Z,17.93
2018-12-23T00:05:11.536Z,18.23
2018-12-23T00:07:38.420Z,15.70
2018-12-23T00:10:07.468Z,16.30
2018-12-23T00:12:34.888Z,16.20
2018-12-23T00:15:02.321Z,15.53
2018-12-23T00:17:29.749Z,17.77
2018-12-23T00:19:57.155Z,17.03
2018-12-23T00:22:24.571Z,15.90
2018-12-23T00:24:52.002Z,18.30
2018-12-23T00:27:19.408Z,17.57
2018-12-23T00:29:46.815Z,18.63
2018-12-23T00:32:14.235Z,18.07
2018-12-23T00:34:41.639Z,19.10
2018-12-23T00:37:09.048Z,18.73
2018-12-23T00:39:36.492Z,18.83
2018-12-23T00:42:03.905Z,19.17
2018-12-23T00:44:31.315Z,21.57
2018-12-23T00:46:58.733Z,18.93
2018-12-23T00:49:26.136Z,20.40
2018-12-23T00:51:53.555Z,18.50
2018-12-23T00:54:20.960Z,22.17
2018-12-23T00:56:48.377Z,21.00
2018-12-23T00:59:15.813Z,21.43
2018-12-23T01:01:43.212Z,19.80
2018-12-23T01:04:10.680Z,20.97
2018-12-23T01:06:38.104Z,21.00
2018-12-23T01:09:06.052Z,23.77
2018-12-23T01:11:33.484Z,21.40
2018-12-23T01:14:01.129Z,22.40
2018-12-23T01:16:28.550Z,20.80
2018-12-23T01:18:56.024Z,21.60
2018-12-23T01:21:23.428Z,21.73
2018-12-23T01:23:50.852Z,20.00
2018-12-23T01:26:18.263Z,23.50
2018-12-23T01:28:45.749Z,22.47
2018-12-23T01:31:13.201Z,24.33
2018-12-23T01:33:40.603Z,21.37
2018-12-23T01:36:08.014Z,22.53
2018-12-23T01:38:35.457Z,21.40
2018-12-23T01:41:04.451Z,22.73
2018-12-23T01:43:32.074Z,21.30
2018-12-23T01:45:59.505Z,22.70
2018-12-23T01:48:26.903Z,20.50
2018-12-23T01:50:54.308Z,23.23
2018-12-23T01:53:21.726Z,23.10
2018-12-23T01:55:49.140Z,24.40
2018-12-23T01:58:16.550Z,23.90
2018-12-23T02:00:43.984Z,28.50
2018-12-23T02:03:11.387Z,23.73
2018-12-23T02:05:46.058Z,24.47
2018-12-23T02:08:08.715Z,24.40
2018-12-23T02:10:36.121Z,24.60
2018-12-23T02:13:03.528Z,23.97
2018-12-23T02:15:30.944Z,25.13
2018-12-23T02:17:58.364Z,24.73
2018-12-23T02:20:26.555Z,24.70
2018-12-23T02:22:53.978Z,25.90
2018-12-23T02:25:21.388Z,24.33
2018-12-23T02:27:48.811Z,24.60
2018-12-23T02:30:16.226Z,23.73
2018-12-23T02:32:43.624Z,24.30
2018-12-23T02:35:11.048Z,24.87
2018-12-23T02:37:38.456Z,24.80
2018-12-23T02:40:05.873Z,23.33
2018-12-23T02:42:33.297Z,23.27
2018-12-23T02:45:00.701Z,22.77
2018-12-23T02:47:28.110Z,23.37
2018-12-23T02:49:55.532Z,23.87
2018-12-23T02:52:23.191Z,23.03
2018-12-23T02:54:50.830Z,24.13
2018-12-23T02:57:18.384Z,34.73
2018-12-23T02:59:45.965Z,23.43
2018-12-23T03:02:13.582Z,23.37
2018-12-23T03:04:41.193Z,25.17
2018-12-23T03:07:08.756Z,23.70
2018-12-23T03:09:36.251Z,22.97
2018-12-23T03:12:03.750Z,23.30
2018-12-23T03:14:31.169Z,23.40
2018-12-23T03:16:58.573Z,24.17
2018-12-23T03:19:26.007Z,22.80
2018-12-23T03:21:53.415Z,22.27
2018-12-23T03:24:20.921Z,23.60
2018-12-23T03:26:48.372Z,23.43
2018-12-23T03:29:15.774Z,23.87
2018-12-23T03:31:43.183Z,24.47
2018-12-23T03:34:10.603Z,24.80
2018-12-23T03:36:38.015Z,23.60
2018-12-23T03:39:06.058Z,26.07
2018-12-23T03:41:33.479Z,25.67
2018-12-23T03:44:00.929Z,25.13
2018-12-23T03:46:28.352Z,28.83
2018-12-23T03:48:55.758Z,26.00
2018-12-23T03:51:23.168Z,26.07
2018-12-23T03:53:50.596Z,24.47
2018-12-23T03:56:18.009Z,23.30
2018-12-23T03:58:45.412Z,24.03
2018-12-23T04:01:12.866Z,24.30
2018-12-23T04:03:40.278Z,24.70
2018-12-23T04:06:07.775Z,22.20
2018-12-23T04:08:35.349Z,24.93
2018-12-23T04:11:02.798Z,24.03
2018-12-23T04:13:30.225Z,23.67
2018-12-23T04:15:57.797Z,24.93
2018-12-23T04:18:25.319Z,23.90
2018-12-23T04:20:52.737Z,25.13
2018-12-23T04:23:20.160Z,25.27
2018-12-23T04:25:47.561Z,22.73
2018-12-23T04:28:14.971Z,26.13
2018-12-23T04:30:42.414Z,25.10
2018-12-23T04:33:09.825Z,24.37
2018-12-23T04:35:37.247Z,23.03
2018-12-23T04:38:04.705Z,23.60
2018-12-23T04:40:32.117Z,23.83
2018-12-23T04:42:59.512Z,23.63
2018-12-23T04:45:26.941Z,23.80
2018-12-23T04:47:54.357Z,22.33
2018-12-23T04:50:21.760Z,22.23
2018-12-23T04:52:49.234Z,22.93
2018-12-23T04:55:16.707Z,21.60
2018-12-23T04:57:44.232Z,24.03
2018-12-23T05:00:11.789Z,23.00
2018-12-23T05:02:39.371Z,22.17
2018-12-23T05:05:06.903Z,22.63
2018-12-23T05:07:34.453Z,22.43
2018-12-23T05:10:01.858Z,23.27
2018-12-23T05:12:29.260Z,21.10
2018-12-23T05:14:56.691Z,21.63
2018-12-23T05:17:24.092Z,21.30
2018-12-23T05:19:51.509Z,21.43
2018-12-23T05:22:18.928Z,21.57
2018-12-23T05:24:46.330Z,22.70
2018-12-23T05:27:13.753Z,23.33
2018-12-23T05:29:41.346Z,22.87
2018-12-23T05:32:08.757Z,21.73
2018-12-23T05:34:36.168Z,22.43
2018-12-23T05:37:03.595Z,20.53
2018-12-23T05:39:31.013Z,20.73
2018-12-23T05:41:58.425Z,20.53
2018-12-23T05:44:25.852Z,21.90
2018-12-23T05:46:53.255Z,22.30
2018-12-23T05:49:20.674Z,21.30
2018-12-23T05:51:48.101Z,21.47
2018-12-23T05:54:15.516Z,20.13
2018-12-23T05:56:42.924Z,21.87
2018-12-23T05:59:10.358Z,20.93
2018-12-23T06:01:37.769Z,20.40
2018-12-23T06:04:05.173Z,22.47
2018-12-23T06:06:32.589Z,19.67
2018-12-23T06:09:00.008Z,20.07
2018-12-23T06:11:27.420Z,20.83
2018-12-23T06:13:54.846Z,21.20
2018-12-23T06:16:22.248Z,19.93
2018-12-23T06:18:49.648Z,18.53
2018-12-23T06:21:17.064Z,19.60
2018-12-23T06:23:44.483Z,20.00
2018-12-23T06:26:11.888Z,21.23
2018-12-23T06:28:39.316Z,20.63
2018-12-23T06:31:06.725Z,20.67
2018-12-23T06:33:34.133Z,21.03
2018-12-23T06:36:01.553Z,19.93
2018-12-23T06:38:28.971Z,19.73
2018-12-23T06:40:56.488Z,20.50
2018-12-23T06:43:23.890Z,19.50
2018-12-23T06:45:51.312Z,19.70
2018-12-23T06:48:18.718Z,20.10
2018-12-23T06:50:46.144Z,19.77
2018-12-23T06:53:13.566Z,19.47
2018-12-23T06:55:40.986Z,18.47
2018-12-23T06:58:08.388Z,20.87
2018-12-23T07:00:35.809Z,18.90
2018-12-23T07:03:03.280Z,19.60
2018-12-23T07:05:30.736Z,19.27
2018-12-23T07:07:58.209Z,18.67
2018-12-23T07:10:25.625Z,19.60
2018-12-23T07:12:53.034Z,19.83
2018-12-23T07:15:20.448Z,19.80
2018-12-23T07:17:47.864Z,30.50
2018-12-23T07:20:15.291Z,19.23
2018-12-23T07:22:42.688Z,19.27
2018-12-23T07:25:10.124Z,17.73
2018-12-23T07:27:37.639Z,17.50
2018-12-23T07:30:06.292Z,18.20
2018-12-23T07:32:33.691Z,19.53
2018-12-23T07:35:01.126Z,18.23
2018-12-23T07:37:28.525Z,17.63
2018-12-23T07:39:55.944Z,18.93
2018-12-23T07:42:23.353Z,17.77
2018-12-23T07:44:50.776Z,18.17
2018-12-23T07:47:18.175Z,17.00
2018-12-23T07:49:45.615Z,17.47
2018-12-23T07:52:13.016Z,16.67
2018-12-23T07:54:40.473Z,17.23
2018-12-23T07:57:07.896Z,18.03
2018-12-23T07:59:35.300Z,16.73
2018-12-23T08:02:02.717Z,17.23
2018-12-23T08:04:30.120Z,17.53
2018-12-23T08:06:57.535Z,17.23
2018-12-23T08:09:24.957Z,16.37
2018-12-23T08:11:52.379Z,17.20
2018-12-23T08:14:19.780Z,15.87
2018-12-23T08:16:47.265Z,17.00
2018-12-23T08:19:14.683Z,16.93
2018-12-23T08:21:42.097Z,17.40
2018-12-23T08:24:09.513Z,15.63
2018-12-23T08:26:36.927Z,17.40
2018-12-23T08:29:04.337Z,16.90
2018-12-23T08:31:31.751Z,15.97
2018-12-23T08:33:59.233Z,15.37
2018-12-23T08:36:26.632Z,13.90
2018-12-23T08:38:54.044Z,15.10
2018-12-23T08:41:21.453Z,14.90
2018-12-23T08:43:48.873Z,15.43
2018-12-23T08:46:16.287Z,13.23
2018-12-23T08:48:43.745Z,14.50
2018-12-23T08:51:11.144Z,15.23
2018-12-23T08:53:38.563Z,15.57
2018-12-23T08:56:05.986Z,14.00
2018-12-23T08:58:33.435Z,13.77
2018-12-23T09:01:00.836Z,14.67
2018-12-23T09:03:28.257Z,14.83
2018-12-23T09:05:55.668Z,14.20
2018-12-23T09:08:23.079Z,14.87
2018-12-23T09:10:50.491Z,14.03
2018-12-23T09:13:17.916Z,13.90
2018-12-23T09:15:45.323Z,13.50
2018-12-23T09:18:19.287Z,13.30
2018-12-23T09:20:42.224Z,13.57
2018-12-23T09:23:09.634Z,13.80
2018-12-23T09:25:37.054Z,15.47
2018-12-23T09:28:04.492Z,17.13
2018-12-23T09:30:31.920Z,13.80
2018-12-23T09:32:59.335Z,13.07
2018-12-23T09:35:26.765Z,46.87
2018-12-23T09:38:01.237Z,14.40
2018-12-23T09:40:23.604Z,13.27
2018-12-23T09:42:52.029Z,9.83
2018-12-23T09:45:19.448Z,12.30
2018-12-23T09:47:46.857Z,11.77
2018-12-23T09:50:14.294Z,10.50
2018-12-23T09:52:41.697Z,9.80
2018-12-23T09:55:09.185Z,10.33
2018-12-23T09:57:36.603Z,10.60
2018-12-23T10:00:05.156Z,11.07
2018-12-23T10:02:33.536Z,10.10
2018-12-23T10:05:01.100Z,11.10
2018-12-23T10:07:28.510Z,11.30
2018-12-23T10:09:55.988Z,10.57
2018-12-23T10:12:23.393Z,9.57
2018-12-23T10:14:50.817Z,11.07
2018-12-23T10:17:18.225Z,9.63
2018-12-23T10:19:45.636Z,9.40
2018-12-23T10:22:13.041Z,13.83
2018-12-23T10:24:40.465Z,9.73
2018-12-23T10:27:07.888Z,10.33
2018-12-23T10:29:35.305Z,8.97
2018-12-23T10:32:02.714Z,9.57
2018-12-23T10:34:30.123Z,10.30
2018-12-23T10:36:57.532Z,10.20
2018-12-23T10:39:24.946Z,12.07
2018-12-23T10:41:52.413Z,10.23
2018-12-23T10:44:19.891Z,9.60
2018-12-23T10:46:47.311Z,8.50
2018-12-23T10:49:14.717Z,8.97
2018-12-23T10:51:42.137Z,9.10
2018-12-23T10:54:09.575Z,9.07
2018-12-23T10:56:37.033Z,14.27
2018-12-23T10:59:04.427Z,9.57
2018-12-23T11:01:31.842Z,9.97
2018-12-23T11:03:59.279Z,10.00
2018-12-23T11:06:26.719Z,10.53
2018-12-23T11:08:54.125Z,9.30
2018-12-23T11:11:21.591Z,10.93
2018-12-23T11:13:49.020Z,13.07
2018-12-23T11:16:18.294Z,11.27
2018-12-23T11:18:45.844Z,12.97
2018-12-23T11:21:13.273Z,13.77
2018-12-23T11:23:40.685Z,14.73
2018-12-23T11:26:08.117Z,18.17
2018-12-23T11:28:35.522Z,15.47
2018-12-23T11:31:02.979Z,17.50
2018-12-23T11:33:30.408Z,17.13
2018-12-23T11:35:57.870Z,17.90
2018-12-23T11:38:25.298Z,18.67
2018-12-23T11:40:52.751Z,20.30
2018-12-23T11:43:20.208Z,21.27
2018-12-23T11:45:47.617Z,20.50
2018-12-23T11:48:15.149Z,21.43
2018-12-23T11:50:42.574Z,21.50
2018-12-23T11:53:10.205Z,20.20
2018-12-23T11:55:37.604Z,19.80
2018-12-23T11:58:05.052Z,19.67
2018-12-23T12:00:32.515Z,19.97
2018-12-23T12:02:59.940Z,21.43
2018-12-23T12:05:27.348Z,20.73
2018-12-23T12:07:54.773Z,22.97
2018-12-23T12:10:22.180Z,22.93
2018-12-23T12:12:49.600Z,22.43
2018-12-23T12:15:17.018Z,22.23
2018-12-23T12:17:44.447Z,24.13
2018-12-23T12:20:11.851Z,21.80
2018-12-23T12:22:41.259Z,23.03
2018-12-23T12:25:08.960Z,22.43
2018-12-23T12:27:36.376Z,22.83
2018-12-23T12:30:04.237Z,25.53
2018-12-23T12:32:31.647Z,25.67
2018-12-23T12:34:59.263Z,24.07
2018-12-23T12:37:26.816Z,23.63
2018-12-23T12:39:54.240Z,21.83
2018-12-23T12:42:21.648Z,20.43
2018-12-23T12:44:49.109Z,20.73
2018-12-23T12:47:17.472Z,20.33
2018-12-23T12:49:44.910Z,22.70
2018-12-23T12:52:12.311Z,22.17
2018-12-23T12:54:39.740Z,27.80
2018-12-23T12:57:07.157Z,24.37
2018-12-23T12:59:34.685Z,23.30
2018-12-23T13:02:02.112Z,23.63
2018-12-23T13:04:29.519Z,25.17
2018-12-23T13:06:56.929Z,27.00
2018-12-23T13:09:24.361Z,23.87
2018-12-23T13:11:51.773Z,26.30
2018-12-23T13:14:19.176Z,26.00
2018-12-23T13:16:46.608Z,26.33
2018-12-23T13:19:14.052Z,28.13
2018-12-23T13:21:41.555Z,27.10
2018-12-23T13:24:08.956Z,27.50
2018-12-23T13:26:36.376Z,28.40
2018-12-23T13:29:03.791Z,28.73
2018-12-23T13:31:31.205Z,28.40
2018-12-23T13:33:58.611Z,28.17
2018-12-23T13:36:26.036Z,27.50
2018-12-23T13:38:53.453Z,28.37
2018-12-23T13:41:28.342Z,32.17
2018-12-23T13:44:10.586Z,27.87
2018-12-23T13:46:50.792Z,28.60
2018-12-23T13:53:32.233Z,40.23
2018-12-23T14:00:08.018Z,33.57
2018-12-23T14:02:42.524Z,29.77
2018-12-23T14:05:23.137Z,30.33
2018-12-23T14:07:55.031Z,31.40
2018-12-23T14:10:29.534Z,29.67
2018-12-23T14:12:59.576Z,29.30
2018-12-23T14:15:28.249Z,30.90
2018-12-23T14:17:56.641Z,33.20
2018-12-23T14:20:25.058Z,33.13
2018-12-23T14:22:53.470Z,32.87
2018-12-23T14:25:21.856Z,35.17
2018-12-23T14:27:50.258Z,31.10
2018-12-23T14:30:18.646Z,29.83
2018-12-23T14:32:47.046Z,30.03
2018-12-23T14:35:15.433Z,28.37
2018-12-23T14:37:43.836Z,30.03
2018-12-23T14:40:12.227Z,30.03
2018-12-23T14:42:40.913Z,30.03
2018-12-23T14:45:09.601Z,29.47
2018-12-23T14:47:40.378Z,30.63
2018-12-23T14:50:09.381Z,29.67
2018-12-23T14:52:37.779Z,30.17
2018-12-23T14:55:06.946Z,34.87
2018-12-23T14:57:35.365Z,43.03
2018-12-23T15:00:05.919Z,30.27
2018-12-23T15:02:34.317Z,29.23
2018-12-23T15:05:02.707Z,30.80
2018-12-23T15:07:31.357Z,30.33
2018-12-23T15:10:00.164Z,32.33
2018-12-23T15:12:28.551Z,31.00
2018-12-23T15:14:56.929Z,31.37
2018-12-23T15:17:25.329Z,34.80
2018-12-23T15:19:53.735Z,36.27
2018-12-23T15:22:22.113Z,37.93
2018-12-23T15:24:50.518Z,37.50
2018-12-23T15:27:19.238Z,38.20
2018-12-23T15:29:48.002Z,36.73
2018-12-23T15:32:16.392Z,37.23
2018-12-23T15:34:45.170Z,38.20
2018-12-23T15:37:13.533Z,30.00
2018-12-23T15:39:42.698Z,38.10
2018-12-23T15:42:11.327Z,36.20
2018-12-23T15:44:39.735Z,37.07
2018-12-23T15:47:08.203Z,42.07
2018-12-23T15:52:19.196Z,51.53
2018-12-23T15:54:47.917Z,39.57
2018-12-23T15:57:16.602Z,36.70
2018-12-23T15:59:44.993Z,42.73
2018-12-23T16:02:13.394Z,39.40
2018-12-23T16:04:41.859Z,38.30
2018-12-23T16:07:10.543Z,35.67
2018-12-23T16:09:39.232Z,43.37
2018-12-23T16:12:08.823Z,39.20
2018-12-23T16:14:37.208Z,39.30
2018-12-23T16:17:05.590Z,40.87
2018-12-23T16:19:33.991Z,39.30
2018-12-23T16:22:03.364Z,37.47
2018-12-23T16:24:31.765Z,38.33
2018-12-23T16:27:00.166Z,38.40
2018-12-23T16:29:28.565Z,42.73
2018-12-23T16:31:57.207Z,37.93
2018-12-23T16:34:25.636Z,34.83
2018-12-23T16:36:53.996Z,37.80
2018-12-23T16:39:22.399Z,41.07
2018-12-23T16:41:50.783Z,39.93
2018-12-23T16:44:19.188Z,38.40
2018-12-23T16:46:47.566Z,36.20
2018-12-23T16:49:15.974Z,38.30
2018-12-23T16:51:44.715Z,36.33
2018-12-23T16:54:13.106Z,35.13
2018-12-23T16:56:41.494Z,47.57
2018-12-23T16:59:09.898Z,41.13
2018-12-23T17:01:38.571Z,48.40
2018-12-23T17:04:07.061Z,48.13
2018-12-23T17:06:35.452Z,37.80
2018-12-23T17:09:05.717Z,32.70
2018-12-23T17:11:34.420Z,29.87
2018-12-23T17:14:02.813Z,33.83
2018-12-23T17:16:31.501Z,37.47
2018-12-23T17:18:59.899Z,35.53
2018-12-23T17:21:28.305Z,43.23
2018-12-23T17:23:56.694Z,37.67
2018-12-23T17:26:25.091Z,42.93
2018-12-23T17:28:53.502Z,36.73
2018-12-23T17:31:21.902Z,33.60
2018-12-23T17:33:50.293Z,35.17
2018-12-23T17:36:18.690Z,36.03
2018-12-23T17:38:47.078Z,43.47
2018-12-23T17:41:15.484Z,54.47
2018-12-23T17:43:43.866Z,56.57
2018-12-23T17:46:12.541Z,39.00
2018-12-23T17:48:40.935Z,37.23
2018-12-23T17:51:09.333Z,42.53
2018-12-23T17:53:38.004Z,39.60
2018-12-23T17:56:06.430Z,43.90
2018-12-23T17:58:34.806Z,46.80
2018-12-23T18:01:03.270Z,46.27
2018-12-23T18:03:31.685Z,50.40
2018-12-23T18:06:00.072Z,56.03
2018-12-23T18:08:28.480Z,49.17
2018-12-23T18:10:56.991Z,46.63
2018-12-23T18:13:25.411Z,53.13
2018-12-23T18:15:53.768Z,48.53
2018-12-23T18:18:22.493Z,60.30
2018-12-23T18:20:50.885Z,57.60
2018-12-23T18:23:19.279Z,42.90
2018-12-23T18:25:47.940Z,42.10
2018-12-23T18:28:16.343Z,35.93
2018-12-23T18:30:45.041Z,41.20
2018-12-23T18:33:13.422Z,43.73
2018-12-23T18:35:41.812Z,49.60
2018-12-23T18:38:10.546Z,51.07
2018-12-23T18:40:38.931Z,51.80
2018-12-23T18:43:07.336Z,58.63
2018-12-23T18:45:35.721Z,45.73
2018-12-23T18:48:04.103Z,52.57
2018-12-23T18:50:32.501Z,47.30
2018-12-23T18:53:00.893Z,58.43
2018-12-23T18:55:30.938Z,58.90
2018-12-23T18:57:59.323Z,48.20
2018-12-23T19:00:27.724Z,49.57
2018-12-23T19:02:56.188Z,52.03
2018-12-23T19:05:24.588Z,60.53
2018-12-23T19:07:53.349Z,56.90
2018-12-23T19:10:27.872Z,57.07
2018-12-23T19:13:17.427Z,57.33
2018-12-23T19:16:01.921Z,56.63
2018-12-23T19:18:52.186Z,52.90
2018-12-23T19:21:43.445Z,58.43
2018-12-23T19:24:26.844Z,57.97
2018-12-23T19:27:19.731Z,58.50
2018-12-23T19:30:22.070Z,67.77
2018-12-23T19:33:05.748Z,72.17
2018-12-23T19:36:02.706Z,69.13
2018-12-23T19:38:46.070Z,72.40
2018-12-23T19:41:26.570Z,78.07
2018-12-23T19:44:00.654Z,82.00
2018-12-23T19:47:05.764Z,85.67
2018-12-23T19:49:39.449Z,88.53
2018-12-23T19:52:28.889Z,93.47
2018-12-23T19:55:06.616Z,100.03
2018-12-23T19:57:44.388Z,111.93
2018-12-23T20:00:24.836Z,102.50
2018-12-23T20:03:02.567Z,108.33
2018-12-23T20:05:34.152Z,94.90
2018-12-23T20:08:17.728Z,111.57
2018-12-23T20:10:59.216Z,102.40
2018-12-23T20:13:49.350Z,102.27
2018-12-23T20:16:33.137Z,95.37
2018-12-23T20:19:19.637Z,118.37
2018-12-23T20:22:03.501Z,110.83
2018-12-23T20:24:49.616Z,121.00
2018-12-23T20:27:33.172Z,125.27
2018-12-23T20:30:24.451Z,132.83
2018-12-23T20:33:15.549Z,130.30
2018-12-23T20:35:47.116Z,144.50
2018-12-23T20:38:21.776Z,178.93
2018-12-23T20:41:17.145Z,164.87
2018-12-23T20:44:03.706Z,144.17
2018-12-23T20:46:40.597Z,148.03
2018-12-23T20:49:43.839Z,152.87
2018-12-23T20:52:28.095Z,142.50
2018-12-23T20:55:16.505Z,112.93
2018-12-23T20:58:00.367Z,92.93
2018-12-23T21:01:05.486Z,64.13
2018-12-23T21:03:37.057Z,74.90
2018-12-23T21:06:30.429Z,72.10
2018-12-23T21:09:14.158Z,55.87
2018-12-23T21:12:14.616Z,55.90
2018-12-23T21:14:46.456Z,55.97
2018-12-23T21:17:27.435Z,65.17
2018-12-23T21:20:28.096Z,54.83
2018-12-23T21:23:02.266Z,52.97
2018-12-23T21:26:02.407Z,69.70
2018-12-23T21:28:39.862Z,64.87
2018-12-23T21:31:36.904Z,53.53
2018-12-23T21:34:34.263Z,49.57
2018-12-23T21:37:27.233Z,52.03
2018-12-23T21:40:14.396Z,45.33
2018-12-23T21:42:48.554Z,42.03
2018-12-23T21:45:23.051Z,39.93
2018-12-23T21:48:10.319Z,44.73
2018-12-23T21:50:53.039Z,42.30
2018-12-23T21:53:30.150Z,36.67
2018-12-23T21:56:36.816Z,38.37
2018-12-23T21:59:15.312Z,32.73
2018-12-23T22:02:03.619Z,35.70
2018-12-23T22:04:53.768Z,30.37
2018-12-23T22:07:42.091Z,26.60
2018-12-23T22:10:25.300Z,29.80
2018-12-23T22:13:16.569Z,29.23
2018-12-23T22:15:45.159Z,27.03
2018-12-23T22:18:16.131Z,21.90
2018-12-23T22:20:44.939Z,23.10
2018-12-23T22:23:13.542Z,21.10
2018-12-23T22:25:42.054Z,24.20
2018-12-23T22:28:10.777Z,30.53
2018-12-23T22:30:39.347Z,33.93
2018-12-23T22:33:07.936Z,26.90
2018-12-23T22:35:36.681Z,27.50
2018-12-23T22:38:05.129Z,29.10
2018-12-23T22:40:33.994Z,29.43
2018-12-23T22:43:02.505Z,29.33
2018-12-23T22:45:31.079Z,28.87
2018-12-23T22:48:00.048Z,29.83
2018-12-23T22:50:28.544Z,27.73
2018-12-23T22:52:57.177Z,28.17
2018-12-23T22:55:25.757Z,27.87
2018-12-23T22:57:54.298Z,23.60
2018-12-23T23:00:24.434Z,22.13
2018-12-23T23:02:52.999Z,25.77
2018-12-23T23:05:21.369Z,27.23
2018-12-23T23:07:49.770Z,28.90
2018-12-23T23:10:18.157Z,28.20
2018-12-23T23:12:46.870Z,31.07
2018-12-23T23:15:15.275Z,28.50
2018-12-23T23:17:43.746Z,28.77
2018-12-23T23:20:12.129Z,29.23
2018-12-23T23:22:40.798Z,27.63
2018-12-23T23:25:09.182Z,28.43
2018-12-23T23:27:37.569Z,28.30
2018-12-23T23:30:06.437Z,29.90
2018-12-23T23:32:34.819Z,30.00
2018-12-23T23:35:03.215Z,30.80
2018-12-23T23:37:31.604Z,31.53
2018-12-23T23:40:00.012Z,31.10
2018-12-23T23:42:28.732Z,30.07
2018-12-23T23:44:57.135Z,28.20
2018-12-23T23:47:25.798Z,27.43
2018-12-23T23:49:54.175Z,27.97
2018-12-23T23:52:22.580Z,28.43
2018-12-23T23:54:51.232Z,30.57
2018-12-23T23:57:19.645Z,33.17
2018-12-23T23:59:48.030Z,33.53
